sensor_id;sensor_type;location;lat;lon;timestamp;temperature;humidity
20180;DHT22;10249;48.900;9.090;2023-09-19T00:00:17;17.60;99.90
20180;DHT22;10249;48.900;9.090;2023-09-19T00:02:46;17.50;99.90
20180;DHT22;10249;48.900;9.090;2023-09-19T00:05:18;17.40;99.90
20180;DHT22;10249;48.900;9.090;2023-09-19T00:07:49;17.60;99.90
20180;DHT22;10249;48.900;9.090;2023-09-19T00:10:17;17.30;99.90
20180;DHT22;10249;48.900;9.090;2023-09-19T00:12:44;17.20;99.90
20180;DHT22;10249;48.900;9.090;2023-09-19T00:15:13;17.20;99.90
20180;DHT22;10249;48.900;9.090;2023-09-19T00:17:43;17.30;99.90
20180;DHT22;10249;48.900;9.090;2023-09-19T00:20:11;17.50;99.90
20180;DHT22;10249;48.900;9.090;2023-09-19T00:22:42;17.30;99.90
20180;DHT22;10249;48.900;9.090;2023-09-19T00:25:09;17.20;99.90
20180;DHT22;10249;48.900;9.090;2023-09-19T00:27:37;17.20;99.90
20180;DHT22;10249;48.900;9.090;2023-09-19T00:30:08;17.20;99.90
20180;DHT22;10249;48.900;9.090;2023-09-19T00:32:42;17.20;99.90
20180;DHT22;10249;48.900;9.090;2023-09-19T00:35:09;17.30;99.90
20180;DHT22;10249;48.900;9.090;2023-09-19T00:37:37;17.20;99.90
20180;DHT22;10249;48.900;9.090;2023-09-19T00:40:06;17.30;99.90
20180;DHT22;10249;48.900;9.090;2023-09-19T00:42:36;17.20;99.90
20180;DHT22;10249;48.900;9.090;2023-09-19T00:45:05;17.10;99.90
20180;DHT22;10249;48.900;9.090;2023-09-19T00:47:32;17.20;99.90
20180;DHT22;10249;48.900;9.090;2023-09-19T00:50:00;17.10;99.90
20180;DHT22;10249;48.900;9.090;2023-09-19T00:52:28;17.30;99.90
20180;DHT22;10249;48.900;9.090;2023-09-19T00:54:56;17.10;99.90
20180;DHT22;10249;48.900;9.090;2023-09-19T00:57:23;17.10;99.90
20180;DHT22;10249;48.900;9.090;2023-09-19T00:59:50;17.10;99.90
20180;DHT22;10249;48.900;9.090;2023-09-19T01:02:20;17.10;99.90
20180;DHT22;10249;48.900;9.090;2023-09-19T01:04:47;17.10;99.90
20180;DHT22;10249;48.900;9.090;2023-09-19T01:07:17;17.20;99.90
20180;DHT22;10249;48.900;9.090;2023-09-19T01:09:44;17.20;99.90
20180;DHT22;10249;48.900;9.090;2023-09-19T01:12:12;17.20;99.90
20180;DHT22;10249;48.900;9.090;2023-09-19T01:14:51;17.10;99.90
20180;DHT22;10249;48.900;9.090;2023-09-19T01:17:27;17.10;99.90
20180;DHT22;10249;48.900;9.090;2023-09-19T01:20:09;17.10;99.90
20180;DHT22;10249;48.900;9.090;2023-09-19T01:22:49;17.10;99.90
20180;DHT22;10249;48.900;9.090;2023-09-19T01:25:49;17.10;99.90
20180;DHT22;10249;48.900;9.090;2023-09-19T01:28:30;17.00;99.90
20180;DHT22;10249;48.900;9.090;2023-09-19T01:31:04;17.10;99.90
20180;DHT22;10249;48.900;9.090;2023-09-19T01:33:54;17.00;99.90
20180;DHT22;10249;48.900;9.090;2023-09-19T01:36:23;17.00;99.90
20180;DHT22;10249;48.900;9.090;2023-09-19T01:38:49;17.10;99.90
20180;DHT22;10249;48.900;9.090;2023-09-19T01:41:21;17.10;99.90
20180;DHT22;10249;48.900;9.090;2023-09-19T01:43:53;17.00;99.90
20180;DHT22;10249;48.900;9.090;2023-09-19T01:46:25;16.80;99.90
20180;DHT22;10249;48.900;9.090;2023-09-19T01:49:00;16.80;99.90
20180;DHT22;10249;48.900;9.090;2023-09-19T01:51:34;16.80;99.90
20180;DHT22;10249;48.900;9.090;2023-09-19T01:54:07;16.70;99.90
20180;DHT22;10249;48.900;9.090;2023-09-19T01:56:37;16.70;99.90
20180;DHT22;10249;48.900;9.090;2023-09-19T01:59:09;16.90;99.90
20180;DHT22;10249;48.900;9.090;2023-09-19T02:01:38;16.60;99.90
20180;DHT22;10249;48.900;9.090;2023-09-19T02:04:05;16.60;99.90
20180;DHT22;10249;48.900;9.090;2023-09-19T02:06:34;16.60;99.90
20180;DHT22;10249;48.900;9.090;2023-09-19T02:09:01;16.50;99.90
20180;DHT22;10249;48.900;9.090;2023-09-19T02:11:29;16.50;99.90
20180;DHT22;10249;48.900;9.090;2023-09-19T02:13:56;16.60;99.90
20180;DHT22;10249;48.900;9.090;2023-09-19T02:16:23;16.40;99.90
20180;DHT22;10249;48.900;9.090;2023-09-19T02:18:51;16.40;99.90
20180;DHT22;10249;48.900;9.090;2023-09-19T02:21:18;16.40;99.90
20180;DHT22;10249;48.900;9.090;2023-09-19T02:23:45;16.30;99.90
20180;DHT22;10249;48.900;9.090;2023-09-19T02:26:12;16.40;99.90
20180;DHT22;10249;48.900;9.090;2023-09-19T02:28:39;16.30;99.90
20180;DHT22;10249;48.900;9.090;2023-09-19T02:31:06;16.40;99.90
20180;DHT22;10249;48.900;9.090;2023-09-19T02:33:33;16.30;99.90
20180;DHT22;10249;48.900;9.090;2023-09-19T02:36:03;16.20;99.90
20180;DHT22;10249;48.900;9.090;2023-09-19T02:38:30;16.10;99.90
20180;DHT22;10249;48.900;9.090;2023-09-19T02:40:57;16.10;99.90
20180;DHT22;10249;48.900;9.090;2023-09-19T02:43:24;16.20;99.90
20180;DHT22;10249;48.900;9.090;2023-09-19T02:45:51;16.40;99.90
20180;DHT22;10249;48.900;9.090;2023-09-19T02:48:20;16.50;99.90
20180;DHT22;10249;48.900;9.090;2023-09-19T02:50:49;16.30;99.90
20180;DHT22;10249;48.900;9.090;2023-09-19T02:53:18;16.20;99.90
20180;DHT22;10249;48.900;9.090;2023-09-19T02:55:44;16.60;99.90
20180;DHT22;10249;48.900;9.090;2023-09-19T02:58:13;16.30;99.90
20180;DHT22;10249;48.900;9.090;2023-09-19T03:00:40;16.50;99.90
20180;DHT22;10249;48.900;9.090;2023-09-19T03:03:08;16.30;99.90
20180;DHT22;10249;48.900;9.090;2023-09-19T03:05:35;16.50;99.90
20180;DHT22;10249;48.900;9.090;2023-09-19T03:08:04;16.40;99.90
20180;DHT22;10249;48.900;9.090;2023-09-19T03:10:33;16.40;99.90
20180;DHT22;10249;48.900;9.090;2023-09-19T03:13:03;16.50;99.90
20180;DHT22;10249;48.900;9.090;2023-09-19T03:15:30;16.40;99.90
20180;DHT22;10249;48.900;9.090;2023-09-19T03:17:57;16.50;99.90
20180;DHT22;10249;48.900;9.090;2023-09-19T03:20:25;16.40;99.90
20180;DHT22;10249;48.900;9.090;2023-09-19T03:22:53;16.40;99.90
20180;DHT22;10249;48.900;9.090;2023-09-19T03:25:20;16.80;99.90
20180;DHT22;10249;48.900;9.090;2023-09-19T03:27:50;16.40;99.90
20180;DHT22;10249;48.900;9.090;2023-09-19T03:30:17;16.40;99.90
20180;DHT22;10249;48.900;9.090;2023-09-19T03:32:44;16.40;99.90
20180;DHT22;10249;48.900;9.090;2023-09-19T03:35:12;16.30;99.90
20180;DHT22;10249;48.900;9.090;2023-09-19T03:37:40;16.40;99.90
20180;DHT22;10249;48.900;9.090;2023-09-19T03:40:08;16.70;99.90
20180;DHT22;10249;48.900;9.090;2023-09-19T03:42:38;16.20;99.90
20180;DHT22;10249;48.900;9.090;2023-09-19T03:45:07;16.20;99.90
20180;DHT22;10249;48.900;9.090;2023-09-19T03:47:37;16.20;99.90
20180;DHT22;10249;48.900;9.090;2023-09-19T03:50:05;16.70;99.90
20180;DHT22;10249;48.900;9.090;2023-09-19T03:52:32;16.10;99.90
20180;DHT22;10249;48.900;9.090;2023-09-19T03:54:59;16.20;99.90
20180;DHT22;10249;48.900;9.090;2023-09-19T03:57:27;16.10;99.90
20180;DHT22;10249;48.900;9.090;2023-09-19T03:59:53;16.20;99.90
20180;DHT22;10249;48.900;9.090;2023-09-19T04:02:22;16.10;99.90
20180;DHT22;10249;48.900;9.090;2023-09-19T04:04:50;16.10;99.90
20180;DHT22;10249;48.900;9.090;2023-09-19T04:07:17;16.10;99.90
20180;DHT22;10249;48.900;9.090;2023-09-19T04:09:44;16.10;99.90
20180;DHT22;10249;48.900;9.090;2023-09-19T04:12:11;16.10;99.90
20180;DHT22;10249;48.900;9.090;2023-09-19T04:14:38;16.20;99.90
20180;DHT22;10249;48.900;9.090;2023-09-19T04:17:05;16.20;99.90
20180;DHT22;10249;48.900;9.090;2023-09-19T04:19:33;16.10;99.90
20180;DHT22;10249;48.900;9.090;2023-09-19T04:22:00;16.10;99.90
20180;DHT22;10249;48.900;9.090;2023-09-19T04:24:27;16.20;99.90
20180;DHT22;10249;48.900;9.090;2023-09-19T04:26:54;16.30;99.90
20180;DHT22;10249;48.900;9.090;2023-09-19T04:29:21;16.20;99.90
20180;DHT22;10249;48.900;9.090;2023-09-19T04:31:48;16.20;99.90
20180;DHT22;10249;48.900;9.090;2023-09-19T04:34:14;16.30;99.90
20180;DHT22;10249;48.900;9.090;2023-09-19T04:36:44;16.40;99.90
20180;DHT22;10249;48.900;9.090;2023-09-19T04:39:11;16.30;99.90
20180;DHT22;10249;48.900;9.090;2023-09-19T04:41:38;16.50;99.90
20180;DHT22;10249;48.900;9.090;2023-09-19T04:44:07;16.40;99.90
20180;DHT22;10249;48.900;9.090;2023-09-19T04:46:33;16.40;99.90
20180;DHT22;10249;48.900;9.090;2023-09-19T04:49:01;16.50;99.90
20180;DHT22;10249;48.900;9.090;2023-09-19T04:51:28;16.50;99.90
20180;DHT22;10249;48.900;9.090;2023-09-19T04:54:01;16.50;99.90
20180;DHT22;10249;48.900;9.090;2023-09-19T04:56:28;16.40;99.90
20180;DHT22;10249;48.900;9.090;2023-09-19T04:58:55;16.30;99.90
20180;DHT22;10249;48.900;9.090;2023-09-19T05:01:24;16.30;99.90
20180;DHT22;10249;48.900;9.090;2023-09-19T05:03:51;16.20;99.90
20180;DHT22;10249;48.900;9.090;2023-09-19T05:06:18;16.00;99.90
20180;DHT22;10249;48.900;9.090;2023-09-19T05:08:46;15.80;99.90
20180;DHT22;10249;48.900;9.090;2023-09-19T05:11:18;15.90;99.90
20180;DHT22;10249;48.900;9.090;2023-09-19T05:13:45;15.70;99.90
20180;DHT22;10249;48.900;9.090;2023-09-19T05:16:12;15.70;99.90
